createdAt,value
2022-08-06T00:00:08.357Z,28.99
2022-08-06T00:02:32.827Z,28.88
2022-08-06T00:05:00.834Z,29.26
2022-08-06T00:07:36.079Z,28.99
2022-08-06T00:11:11.476Z,28.75
2022-08-06T00:14:16.780Z,28.75
2022-08-06T00:17:22.118Z,28.82
2022-08-06T00:20:31.147Z,28.78
2022-08-06T00:23:35.010Z,28.77
2022-08-06T00:26:00.957Z,28.76
2022-08-06T00:28:31.110Z,28.69
2022-08-06T00:31:34.543Z,28.66
2022-08-06T00:34:02.750Z,28.69
2022-08-06T00:36:30.996Z,28.59
2022-08-06T00:38:59.418Z,28.66
2022-08-06T00:41:30.565Z,28.75
2022-08-06T00:44:32.831Z,28.69
2022-08-06T00:47:01.047Z,28.66
2022-08-06T00:49:48.451Z,28.6
2022-08-06T00:52:26.783Z,28.63
2022-08-06T00:55:36.280Z,28.57
2022-08-06T00:57:59.977Z,28.57
2022-08-06T01:00:29.744Z,28.64
2022-08-06T01:03:41.753Z,28.5
2022-08-06T01:06:05.127Z,28.5
2022-08-06T01:08:30.070Z,28.49
2022-08-06T01:11:35.555Z,28.46
2022-08-06T01:14:05.438Z,28.48
2022-08-06T01:16:31.883Z,28.36
2022-08-06T01:19:00.128Z,28.36
2022-08-06T01:21:36.692Z,28.4
2022-08-06T01:24:34.446Z,28.38
2022-08-06T01:27:01.925Z,28.32
2022-08-06T01:29:34.667Z,28.21
2022-08-06T01:32:35.488Z,28.16
2022-08-06T01:35:03.739Z,28.19
2022-08-06T01:37:38.627Z,28.27
2022-08-06T01:40:02.376Z,28.25
2022-08-06T01:42:35.227Z,28.16
2022-08-06T01:45:42.604Z,28.11
2022-08-06T01:48:02.023Z,28.11
2022-08-06T01:50:30.325Z,28.08
2022-08-06T01:53:30.242Z,28.13
2022-08-06T01:56:56.451Z,28.14
2022-08-06T01:59:00.924Z,28.14
2022-08-06T02:01:29.204Z,28.06
2022-08-06T02:05:11.555Z,27.87
2022-08-06T02:08:34.789Z,27.82
2022-08-06T02:12:01.664Z,27.83
2022-08-06T02:14:28.223Z,27.84
2022-08-06T02:17:48.675Z,27.58
2022-08-06T02:20:12.405Z,27.52
2022-08-06T02:22:30.409Z,27.53
2022-08-06T02:25:36.173Z,27.64
2022-08-06T02:28:02.880Z,27.68
2022-08-06T02:30:34.898Z,27.64
2022-08-06T02:34:01.572Z,27.52
2022-08-06T02:36:04.695Z,27.52
2022-08-06T02:38:32.888Z,27.56
2022-08-06T02:41:01.131Z,27.58
2022-08-06T02:43:29.398Z,27.58
2022-08-06T02:46:34.698Z,27.36
2022-08-06T02:49:02.984Z,27.29
2022-08-06T02:51:44.152Z,27.24
2022-08-06T02:54:02.971Z,27.24
2022-08-06T02:56:19.516Z,27.34
2022-08-06T02:59:24.859Z,27.38
2022-08-06T03:02:30.466Z,27.16
2022-08-06T03:05:54.535Z,27.2
2022-08-06T03:08:03.680Z,27.16
2022-08-06T03:10:31.938Z,27.29
2022-08-06T03:13:03.421Z,27.33
2022-08-06T03:15:57.766Z,27.17
2022-08-06T03:18:33.752Z,27.27
2022-08-06T03:21:01.996Z,27.29
2022-08-06T03:23:30.249Z,26.92
2022-08-06T03:26:35.532Z,26.85
2022-08-06T03:29:03.879Z,26.92
2022-08-06T03:31:33.680Z,26.92
2022-08-06T03:34:03.805Z,26.91
2022-08-06T03:36:29.012Z,27.02
2022-08-06T03:39:33.931Z,27.11
2022-08-06T03:42:06.633Z,27.1
2022-08-06T03:44:30.336Z,27.18
2022-08-06T03:47:49.065Z,26.98
2022-08-06T03:50:03.925Z,27.02
2022-08-06T03:52:32.167Z,27.04
2022-08-06T03:56:06.354Z,27.05
2022-08-06T03:58:34.601Z,26.86
2022-08-06T04:01:03.815Z,26.85
2022-08-06T04:03:33.278Z,26.76
2022-08-06T04:06:36.449Z,26.67
2022-08-06T04:09:04.681Z,26.71
2022-08-06T04:12:10.917Z,26.78
2022-08-06T04:14:05.297Z,26.73
2022-08-06T04:16:29.914Z,26.73
2022-08-06T04:19:36.121Z,26.71
2022-08-06T04:22:58.552Z,26.74
2022-08-06T04:24:32.278Z,26.57
2022-08-06T04:26:59.445Z,26.58
2022-08-06T04:29:33.109Z,26.63
2022-08-06T04:32:33.203Z,26.6
2022-08-06T04:36:04.458Z,26.64
2022-08-06T04:37:30.527Z,26.5
2022-08-06T04:40:41.544Z,26.56
2022-08-06T04:43:03.064Z,26.51
2022-08-06T04:46:15.346Z,26.48
2022-08-06T04:47:59.546Z,26.5
2022-08-06T04:50:27.796Z,26.58
2022-08-06T04:53:30.378Z,26.45
2022-08-06T04:56:48.684Z,26.4
2022-08-06T04:59:50.297Z,26.4
2022-08-06T05:02:03.830Z,26.41
2022-08-06T05:04:32.266Z,26.29
2022-08-06T05:07:00.265Z,26.29
2022-08-06T05:09:38.236Z,26.42
2022-08-06T05:12:33.870Z,26.43
2022-08-06T05:15:02.112Z,26.41
2022-08-06T05:17:34.661Z,26.24
2022-08-06T05:20:35.670Z,26.25
2022-08-06T05:23:08.514Z,26.31
2022-08-06T05:25:35.793Z,26.35
2022-08-06T05:28:04.467Z,26.38
2022-08-06T05:30:28.624Z,26.48
2022-08-06T05:33:37.200Z,26.43
2022-08-06T05:36:04.942Z,26.49
2022-08-06T05:38:31.884Z,26.32
2022-08-06T05:41:37.858Z,26.19
2022-08-06T05:44:03.992Z,26.24
2022-08-06T05:46:33.760Z,26.24
2022-08-06T05:49:00.527Z,26.17
2022-08-06T05:51:42.837Z,26.01
2022-08-06T05:54:02.786Z,26.17
2022-08-06T05:56:35.703Z,26.18
2022-08-06T05:59:29.727Z,26.33
2022-08-06T06:02:28.008Z,26.29
2022-08-06T06:06:02.898Z,26.22
2022-08-06T06:08:08.798Z,26.27
2022-08-06T06:10:29.504Z,26.32
2022-08-06T06:13:40.026Z,26.19
2022-08-06T06:16:04.268Z,26.18
2022-08-06T06:18:34.544Z,26.18
2022-08-06T06:21:04.276Z,26.21
2022-08-06T06:23:29.433Z,26.25
2022-08-06T06:26:35.074Z,26.27
2022-08-06T06:29:01.360Z,26.33
2022-08-06T06:31:58.283Z,26.41
2022-08-06T06:34:34.939Z,26.37
2022-08-06T06:37:03.165Z,26.4
2022-08-06T06:39:37.372Z,26.34
2022-08-06T06:41:59.655Z,26.32
2022-08-06T06:45:03.821Z,26.28
2022-08-06T06:47:36.454Z,26.38
2022-08-06T06:50:03.904Z,26.38
2022-08-06T06:52:30.757Z,26.51
2022-08-06T06:55:36.684Z,26.55
2022-08-06T06:57:55.056Z,26.59
2022-08-06T07:00:43.625Z,26.56
2022-08-06T07:03:34.760Z,26.57
2022-08-06T07:06:44.509Z,26.68
2022-08-06T07:09:07.758Z,26.74
2022-08-06T07:11:40.040Z,26.81
2022-08-06T07:14:35.744Z,26.82
2022-08-06T07:17:44.385Z,26.81
2022-08-06T07:19:32.220Z,26.81
2022-08-06T07:22:00.463Z,26.77
2022-08-06T07:24:33.262Z,26.67
2022-08-06T07:27:41.397Z,26.47
2022-08-06T07:30:02.276Z,26.44
2022-08-06T07:32:32.135Z,26.62
2022-08-06T07:35:35.857Z,26.73
2022-08-06T07:38:04.086Z,26.74
2022-08-06T07:40:32.363Z,26.72
2022-08-06T07:43:00.603Z,26.68
2022-08-06T07:45:32.259Z,26.57
2022-08-06T07:48:34.138Z,26.77
2022-08-06T07:51:04.513Z,26.81
2022-08-06T07:53:33.252Z,26.81
2022-08-06T07:56:27.769Z,26.77
2022-08-06T07:59:33.126Z,26.78
2022-08-06T08:02:01.344Z,26.72
2022-08-06T08:04:35.362Z,26.78
2022-08-06T08:07:37.469Z,26.94
2022-08-06T08:10:03.875Z,27.02
2022-08-06T08:12:34.595Z,27.28
2022-08-06T08:14:59.642Z,27.34
2022-08-06T08:17:30.090Z,27.36
2022-08-06T08:20:33.823Z,27.42
2022-08-06T08:23:01.425Z,27.38
2022-08-06T08:25:39.671Z,27.3
2022-08-06T08:28:34.991Z,27.29
2022-08-06T08:31:05.958Z,27.19
2022-08-06T08:33:31.509Z,27.14
2022-08-06T08:36:37.495Z,27.19
2022-08-06T08:39:06.315Z,27.2
2022-08-06T08:41:42.942Z,27.41
2022-08-06T08:44:04.002Z,27.45
2022-08-06T08:46:31.220Z,27.31
2022-08-06T08:49:35.123Z,27.23
2022-08-06T08:52:03.363Z,27.24
2022-08-06T08:54:31.614Z,27.33
2022-08-06T08:57:02.890Z,27.33
2022-08-06T08:59:58.554Z,27.36
2022-08-06T09:02:25.864Z,27.6
2022-08-06T09:05:34.368Z,27.69
2022-08-06T09:08:39.789Z,27.83
2022-08-06T09:11:06.991Z,27.76
2022-08-06T09:13:50.905Z,27.84
2022-08-06T09:16:00.581Z,27.88
2022-08-06T09:18:29.710Z,27.91
2022-08-06T09:21:34.131Z,27.94
2022-08-06T09:24:04.744Z,27.91
2022-08-06T09:26:52.495Z,27.92
2022-08-06T09:29:35.967Z,27.87
2022-08-06T09:32:04.232Z,27.87
2022-08-06T09:34:38.468Z,27.91
2022-08-06T09:37:04.752Z,27.84
2022-08-06T09:39:29.007Z,27.71
2022-08-06T09:42:34.282Z,28.01
2022-08-06T09:45:02.506Z,28.04
2022-08-06T09:47:30.993Z,28.02
2022-08-06T09:50:36.096Z,28.11
2022-08-06T09:53:05.993Z,28.13
2022-08-06T09:55:38.130Z,28.14
2022-08-06T09:57:52.599Z,28.15
2022-08-06T10:04:01.500Z,27.79
2022-08-06T10:06:31.527Z,27.81
2022-08-06T10:09:00.420Z,27.86
2022-08-06T10:11:28.031Z,28.11
2022-08-06T10:14:33.626Z,28.21
2022-08-06T10:17:01.523Z,28.3
2022-08-06T10:19:35.738Z,28.47
2022-08-06T10:22:35.081Z,28.64
2022-08-06T10:25:12.464Z,28.69
2022-08-06T10:27:36.175Z,28.68
2022-08-06T10:29:59.830Z,28.61
2022-08-06T10:32:30.901Z,28.68
2022-08-06T10:35:33.717Z,28.77
2022-08-06T10:38:01.814Z,28.82
2022-08-06T10:40:30.253Z,28.93
2022-08-06T10:43:35.238Z,28.88
2022-08-06T10:46:03.490Z,28.83
2022-08-06T10:49:01.731Z,28.9
2022-08-06T10:51:53.602Z,28.95
2022-08-06T10:54:09.682Z,28.98
2022-08-06T10:56:25.960Z,29
2022-08-06T10:59:40.851Z,29.05
2022-08-06T11:02:35.911Z,29.22
2022-08-06T11:05:08.066Z,29.27
2022-08-06T11:08:02.034Z,29.38
2022-08-06T11:10:02.639Z,29.36
2022-08-06T11:13:00.993Z,29.21
2022-08-06T11:15:37.448Z,29.42
2022-08-06T11:18:02.499Z,29.43
2022-08-06T11:20:30.768Z,29.54
2022-08-06T11:23:52.684Z,29.57
2022-08-06T11:26:04.866Z,29.57
2022-08-06T11:28:32.571Z,29.53
2022-08-06T11:31:01.957Z,29.52
2022-08-06T11:33:29.043Z,29.44
2022-08-06T11:36:34.345Z,29.62
2022-08-06T11:39:08.048Z,29.64
2022-08-06T11:41:44.753Z,29.98
2022-08-06T11:44:36.152Z,30.13
2022-08-06T11:47:04.391Z,30.16
2022-08-06T11:49:32.683Z,30.36
2022-08-06T11:52:04.516Z,30.41
2022-08-06T11:54:29.161Z,30.51
2022-08-06T11:57:41.043Z,30.87
2022-08-06T12:00:02.734Z,30.94
2022-08-06T12:02:31.047Z,31.21
2022-08-06T12:04:59.259Z,31.26
2022-08-06T12:07:56.336Z,31.44
2022-08-06T12:10:28.977Z,31.63
2022-08-06T12:13:29.904Z,31.81
2022-08-06T12:16:35.188Z,31.97
2022-08-06T12:19:03.482Z,32.02
2022-08-06T12:21:37.015Z,32.18
2022-08-06T12:23:59.926Z,32.24
2022-08-06T12:26:28.668Z,32.38
2022-08-06T12:29:34.416Z,32.5
2022-08-06T12:32:01.788Z,32.56
2022-08-06T12:34:31.164Z,32.72
2022-08-06T12:37:40.970Z,32.84
2022-08-06T12:40:03.596Z,32.9
2022-08-06T12:42:51.913Z,33.09
2022-08-06T12:45:00.040Z,27.9
2022-08-06T12:48:11.121Z,33.28
2022-08-06T12:50:33.605Z,33.33
2022-08-06T12:53:01.874Z,33.38
2022-08-06T12:55:30.116Z,33.64
2022-08-06T12:58:40.160Z,33.72
2022-08-06T13:01:03.688Z,33.74
2022-08-06T13:03:31.930Z,33.86
2022-08-06T13:06:00.187Z,33.89
2022-08-06T13:08:28.396Z,34.09
2022-08-06T13:11:33.739Z,34.23
2022-08-06T13:14:03.959Z,34.23
2022-08-06T13:16:30.203Z,34.39
2022-08-06T13:19:28.524Z,34.5
2022-08-06T13:22:32.612Z,34.54
2022-08-06T13:25:01.396Z,34.58
2022-08-06T13:27:29.366Z,34.66
2022-08-06T13:30:37.888Z,34.99
2022-08-06T13:33:02.669Z,35.02
2022-08-06T13:35:32.606Z,35.09
2022-08-06T13:38:36.780Z,35.15
2022-08-06T13:41:04.513Z,35.18
2022-08-06T13:43:38.706Z,35.41
2022-08-06T13:46:00.998Z,35.45
2022-08-06T13:51:35.499Z,35.68
2022-08-06T13:54:04.337Z,35.74
2022-08-06T13:56:31.459Z,35.9
2022-08-06T13:58:59.307Z,35.93
2022-08-06T14:01:27.913Z,36.04
2022-08-06T14:04:32.900Z,36.06
2022-08-06T14:07:01.082Z,33.24
2022-08-06T14:10:09.565Z,36.16
2022-08-06T14:12:34.675Z,36.25
2022-08-06T14:15:02.941Z,36.32
2022-08-06T14:17:34.168Z,36.47
2022-08-06T14:20:10.847Z,36.49
2022-08-06T14:22:27.659Z,36.52
2022-08-06T14:25:52.737Z,36.47
2022-08-06T14:28:01.243Z,36.43
2022-08-06T14:30:29.039Z,36.5
2022-08-06T14:34:03.636Z,36.75
2022-08-06T14:36:36.036Z,36.86
2022-08-06T14:39:00.209Z,36.71
2022-08-06T14:42:05.443Z,36.98
2022-08-06T14:44:33.689Z,36.99
2022-08-06T14:47:01.984Z,37
2022-08-06T14:49:33.254Z,37.09
2022-08-06T14:52:35.515Z,37.18
2022-08-06T14:55:06.440Z,37.21
2022-08-06T14:57:41.766Z,37.25
2022-08-06T15:00:00.269Z,37.25
2022-08-06T15:02:28.550Z,37.41
2022-08-06T15:05:41.404Z,37.56
2022-08-06T15:08:02.074Z,37.58
2022-08-06T15:10:30.422Z,37.68
2022-08-06T15:13:36.884Z,37.78
2022-08-06T15:16:03.830Z,37.75
2022-08-06T15:18:40.770Z,37.77
2022-08-06T15:21:00.341Z,37.82
2022-08-06T15:23:30.829Z,37.91
2022-08-06T15:26:42.684Z,38
2022-08-06T15:29:39.267Z,37.96
2022-08-06T15:32:02.382Z,37.91
2022-08-06T15:34:28.070Z,37.86
2022-08-06T15:37:53.468Z,37.9
2022-08-06T15:40:01.145Z,37.96
2022-08-06T15:42:29.352Z,37.91
2022-08-06T15:45:45.527Z,37.99
2022-08-06T15:48:05.602Z,37.98
2022-08-06T15:50:34.087Z,37.98
2022-08-06T15:53:36.632Z,38
2022-08-06T15:56:04.736Z,38.04
2022-08-06T15:58:32.962Z,38.16
2022-08-06T16:01:03.773Z,36.95
2022-08-06T16:03:29.498Z,38.15
2022-08-06T16:07:13.793Z,38.07
2022-08-06T16:10:25.757Z,38.09
2022-08-06T16:13:22.471Z,38.05
2022-08-06T16:15:50.674Z,38.12
2022-08-06T16:18:29.976Z,38.14
2022-08-06T16:21:24.223Z,38.25
2022-08-06T16:24:29.583Z,38.25
2022-08-06T16:27:37.939Z,38.31
2022-08-06T16:29:54.965Z,38.34
2022-08-06T16:32:25.070Z,38.33
2022-08-06T16:36:05.574Z,38.34
2022-08-06T16:38:33.815Z,38.32
2022-08-06T16:41:02.064Z,38.34
2022-08-06T16:43:30.325Z,38.22
2022-08-06T16:46:35.652Z,38.15
2022-08-06T16:49:03.849Z,38.2
2022-08-06T16:52:41.541Z,38.08
2022-08-06T16:54:07.060Z,38.07
2022-08-06T16:56:28.599Z,38.02
2022-08-06T16:59:42.288Z,37.87
2022-08-06T17:02:12.534Z,37.83
2022-08-06T17:04:32.027Z,37.8
2022-08-06T17:07:37.799Z,37.82
2022-08-06T17:10:03.991Z,37.82
2022-08-06T17:12:32.210Z,37.73
2022-08-06T17:15:00.468Z,37.7
2022-08-06T17:17:37.232Z,37.66
2022-08-06T17:20:34.045Z,37.58
2022-08-06T17:23:02.309Z,37.53
2022-08-06T17:25:50.555Z,37.43
2022-08-06T17:28:35.852Z,37.25
2022-08-06T17:30:55.922Z,37.24
2022-08-06T17:33:24.122Z,37.15
2022-08-06T17:37:22.720Z,36.96
2022-08-06T17:39:38.786Z,36.74
2022-08-06T17:42:11.583Z,36.68
2022-08-06T17:44:31.241Z,36.36
2022-08-06T17:46:59.522Z,36.22
2022-08-06T17:49:33.969Z,35.93
2022-08-06T17:52:35.016Z,35.66
2022-08-06T17:56:29.213Z,35.41
2022-08-06T17:59:21.455Z,35.12
2022-08-06T18:02:26.136Z,34.81
2022-08-06T18:05:35.768Z,34.53
2022-08-06T18:08:08.448Z,34.5
2022-08-06T18:10:31.254Z,34.27
2022-08-06T18:13:52.492Z,34.07
2022-08-06T18:16:01.404Z,34.04
2022-08-06T18:18:29.662Z,33.78
2022-08-06T18:21:34.989Z,33.66
2022-08-06T18:24:03.275Z,33.66
2022-08-06T18:26:32.935Z,33.45
2022-08-06T18:29:58.974Z,33.23
2022-08-06T18:32:05.092Z,33.21
2022-08-06T18:34:33.256Z,33.09
2022-08-06T18:37:05.791Z,33.05
2022-08-06T18:40:18.676Z,32.86
2022-08-06T18:42:26.901Z,32.74
2022-08-06T18:45:32.194Z,32.71
2022-08-06T18:48:00.471Z,32.68
2022-08-06T18:50:28.698Z,32.46
2022-08-06T18:54:00.942Z,32.3
2022-08-06T18:56:04.863Z,32.27
2022-08-06T18:58:30.514Z,32.16
2022-08-06T19:01:35.913Z,32.14
2022-08-06T19:04:04.077Z,32.12
2022-08-06T19:06:32.330Z,32.02
2022-08-06T19:09:00.588Z,32
2022-08-06T19:11:30.772Z,31.93
2022-08-06T19:14:34.133Z,31.91
2022-08-06T19:17:02.380Z,31.9
2022-08-06T19:19:46.851Z,31.74
2022-08-06T19:22:35.960Z,31.7
2022-08-06T19:25:09.322Z,31.6
2022-08-06T19:28:07.050Z,31.6
2022-08-06T19:30:03.763Z,31.54
2022-08-06T19:32:29.368Z,31.49
2022-08-06T19:36:03.813Z,31.46
2022-08-06T19:38:02.666Z,31.43
2022-08-06T19:40:30.778Z,31.24
2022-08-06T19:44:23.600Z,31.27
2022-08-06T19:46:34.193Z,31.22
2022-08-06T19:49:01.430Z,31.22
2022-08-06T19:52:03.130Z,31.24
2022-08-06T19:54:35.992Z,31.16
2022-08-06T19:57:03.230Z,31.14
2022-08-06T20:00:48.827Z,30.95
2022-08-06T20:02:07.684Z,30.97
2022-08-06T20:04:28.065Z,30.92
2022-08-06T20:07:33.291Z,30.92
2022-08-06T20:10:03.230Z,30.93
2022-08-06T20:12:32.526Z,30.81
2022-08-06T20:15:39.735Z,30.8
2022-08-06T20:18:04.162Z,30.73
2022-08-06T20:20:31.607Z,30.52
2022-08-06T20:22:59.860Z,30.51
2022-08-06T20:25:28.096Z,30.48
2022-08-06T20:29:06.948Z,30.46
2022-08-06T20:31:01.666Z,30.44
2022-08-06T20:33:29.893Z,30.35
2022-08-06T20:36:35.196Z,30.19
2022-08-06T20:39:03.507Z,30.2
2022-08-06T20:41:27.292Z,30.26
2022-08-06T20:44:28.798Z,30.23
2022-08-06T20:47:54.583Z,30.18
2022-08-06T20:50:05.251Z,30.19
2022-08-06T20:53:08.727Z,30.16
2022-08-06T20:55:38.248Z,30.11
2022-08-06T20:58:04.206Z,30.1
2022-08-06T21:00:32.625Z,30.04
2022-08-06T21:03:03.682Z,30.06
2022-08-06T21:05:28.944Z,29.86
2022-08-06T21:08:34.236Z,29.89
2022-08-06T21:13:35.631Z,29.95
2022-08-06T21:16:36.049Z,29.83
2022-08-06T21:19:06.759Z,29.76
2022-08-06T21:21:32.567Z,29.78
2022-08-06T21:24:00.802Z,29.8
2022-08-06T21:26:29.832Z,29.73
2022-08-06T21:30:07.678Z,29.46
2022-08-06T21:32:02.658Z,29.39
2022-08-06T21:34:30.854Z,29.35
2022-08-06T21:37:42.770Z,29.49
2022-08-06T21:40:36.821Z,29.5
2022-08-06T21:42:24.510Z,29.21
2022-08-06T21:45:50.100Z,29.06
2022-08-06T21:48:35.107Z,29.17
2022-08-06T21:51:03.328Z,29.16
2022-08-06T21:53:45.964Z,29.06
2022-08-06T21:56:36.099Z,29.03
2022-08-06T21:58:28.084Z,29.26
2022-08-06T22:01:37.830Z,29.33
2022-08-06T22:04:39.807Z,29.34
2022-08-06T22:06:38.097Z,29.11
2022-08-06T22:09:38.118Z,29.11
2022-08-06T22:12:35.709Z,29.16
2022-08-06T22:14:35.904Z,28.95
2022-08-06T22:17:00.001Z,28.87
2022-08-06T22:19:33.599Z,28.96
2022-08-06T22:22:33.526Z,28.74
2022-08-06T22:25:01.742Z,28.78
2022-08-06T22:27:34.118Z,28.85
2022-08-06T22:30:36.837Z,28.74
2022-08-06T22:33:04.901Z,28.69
2022-08-06T22:36:11.531Z,28.61
2022-08-06T22:38:15.955Z,28.52
2022-08-06T22:40:28.321Z,28.45
2022-08-06T22:43:30.116Z,28.5
2022-08-06T22:46:30.709Z,28.53
2022-08-06T22:49:36.768Z,28.44
2022-08-06T22:52:04.650Z,28.5
2022-08-06T22:54:58.566Z,28.64
2022-08-06T22:57:03.381Z,28.67
2022-08-06T22:59:31.989Z,28.56
2022-08-06T23:02:34.473Z,28.48
2022-08-06T23:05:02.608Z,28.52
2022-08-06T23:07:43.582Z,28.58
2022-08-06T23:10:36.186Z,28.42
2022-08-06T23:13:04.450Z,28.39
2022-08-06T23:15:39.590Z,28.35
2022-08-06T23:18:00.902Z,28.38
2022-08-06T23:20:31.688Z,28.1
2022-08-06T23:23:44.064Z,28.11
2022-08-06T23:26:03.603Z,28.07
2022-08-06T23:28:30.938Z,28.23
2022-08-06T23:31:37.078Z,28.3
2022-08-06T23:34:04.529Z,28.3
2022-08-06T23:36:32.795Z,28.12
2022-08-06T23:39:00.998Z,28.07
2022-08-06T23:41:58.539Z,28
2022-08-06T23:44:26.379Z,28.26
2022-08-06T23:47:52.817Z,28.21
2022-08-06T23:49:59.958Z,28.13
2022-08-06T23:52:28.158Z,28.08
2022-08-06T23:55:35.485Z,28.05
2022-08-06T23:58:02.579Z,28.05
